createdAt,value
2017-12-21T00:00:32.733Z,1025.19
2017-12-21T00:01:32.760Z,1025.17
2017-12-21T00:02:32.762Z,1025.19
2017-12-21T00:03:32.778Z,1025.14
2017-12-21T00:04:32.801Z,1025.14
2017-12-21T00:05:32.812Z,1025.07
2017-12-21T00:06:32.832Z,1025.08
2017-12-21T00:07:32.846Z,1025.1
2017-12-21T00:08:32.866Z,1025.12
2017-12-21T00:09:32.880Z,1025.08
2017-12-21T00:10:32.900Z,1025.1
2017-12-21T00:11:32.914Z,1025.08
2017-12-21T00:12:32.925Z,1025.09
2017-12-21T00:13:32.945Z,1025.04
2017-12-21T00:14:32.957Z,1025
2017-12-21T00:15:32.980Z,1024.96
2017-12-21T00:16:32.996Z,1024.9
2017-12-21T00:17:33.011Z,1024.85
2017-12-21T00:18:33.026Z,1024.8
2017-12-21T00:19:33.043Z,1024.68
2017-12-21T00:20:33.060Z,1024.63
2017-12-21T00:21:33.072Z,1024.61
2017-12-21T00:22:33.088Z,1024.52
2017-12-21T00:23:33.111Z,1024.56
2017-12-21T00:24:33.120Z,1024.54
2017-12-21T00:26:33.154Z,1024.49
2017-12-21T00:27:33.174Z,1024.48
2017-12-21T00:28:33.192Z,1024.47
2017-12-21T00:29:33.207Z,1024.56
2017-12-21T00:30:33.320Z,1024.54
2017-12-21T00:31:33.240Z,1024.58
2017-12-21T00:32:33.255Z,1024.57
2017-12-21T00:33:33.272Z,1024.53
2017-12-21T00:34:33.288Z,1024.52
2017-12-21T00:35:33.299Z,1024.52
2017-12-21T00:36:33.327Z,1024.59
2017-12-21T00:37:33.338Z,1024.58
2017-12-21T00:38:33.360Z,1024.56
2017-12-21T00:39:33.371Z,1024.55
2017-12-21T00:40:33.386Z,1024.52
2017-12-21T00:42:33.418Z,1024.53
2017-12-21T00:43:33.436Z,1024.49
2017-12-21T00:44:33.447Z,1024.47
2017-12-21T00:45:33.468Z,1024.48
2017-12-21T00:46:33.480Z,1024.44
2017-12-21T00:47:33.500Z,1024.36
2017-12-21T00:48:33.517Z,1024.31
2017-12-21T00:49:33.533Z,1024.29
2017-12-21T00:50:33.545Z,1024.27
2017-12-21T00:51:33.565Z,1024.33
2017-12-21T00:52:33.582Z,1024.33
2017-12-21T00:53:33.597Z,1024.28
2017-12-21T00:54:33.614Z,1024.27
2017-12-21T00:55:33.637Z,1024.3
2017-12-21T00:56:33.647Z,1024.32
2017-12-21T00:58:33.683Z,1024.35
2017-12-21T00:59:33.698Z,1024.37
2017-12-21T01:00:33.709Z,1024.33
2017-12-21T01:01:33.729Z,1024.35
2017-12-21T01:02:33.754Z,1024.37
2017-12-21T01:03:33.765Z,1024.36
2017-12-21T01:04:33.780Z,1024.34
2017-12-21T01:05:33.791Z,1024.31
2017-12-21T01:06:33.808Z,1024.32
2017-12-21T01:07:33.832Z,1024.3
2017-12-21T01:08:33.843Z,1024.24
2017-12-21T01:09:33.867Z,1024.14
2017-12-21T01:10:33.878Z,1024.07
2017-12-21T01:11:33.900Z,1024.04
2017-12-21T01:12:33.909Z,1023.99
2017-12-21T01:14:33.943Z,1024.06
2017-12-21T01:15:33.960Z,1024.09
2017-12-21T01:16:33.971Z,1024.07
2017-12-21T01:17:33.993Z,1024.1
2017-12-21T01:18:34.004Z,1024.12
2017-12-21T01:19:34.021Z,1024.12
2017-12-21T01:20:34.041Z,1024.12
2017-12-21T01:21:34.064Z,1024.15
2017-12-21T01:22:34.075Z,1024.2
2017-12-21T01:23:34.090Z,1024.2
2017-12-21T01:24:34.103Z,1024.23
2017-12-21T01:25:34.120Z,1024.2
2017-12-21T01:26:34.148Z,1024.23
2017-12-21T01:27:34.157Z,1024.28
2017-12-21T01:29:34.186Z,1024.28
2017-12-21T01:30:34.213Z,1024.3
2017-12-21T01:31:34.230Z,1024.27
2017-12-21T01:32:34.239Z,1024.29
2017-12-21T01:33:34.254Z,1024.27
2017-12-21T01:34:34.275Z,1024.25
2017-12-21T01:35:34.285Z,1024.18
2017-12-21T01:36:34.305Z,1024.16
2017-12-21T01:37:34.320Z,1024.15
2017-12-21T01:38:34.335Z,1024.15
2017-12-21T01:39:34.352Z,1024.11
2017-12-21T01:40:34.373Z,1024.12
2017-12-21T01:41:34.387Z,1024.09
2017-12-21T01:42:34.406Z,1024.08
2017-12-21T01:43:34.454Z,1024.08
2017-12-21T01:44:34.444Z,1024.07
2017-12-21T01:45:34.449Z,1024.07
2017-12-21T01:46:34.466Z,1024.03
2017-12-21T01:47:34.482Z,1024.05
2017-12-21T01:48:34.502Z,1024.06
2017-12-21T01:49:34.520Z,1024.1
2017-12-21T01:50:34.532Z,1024.08
2017-12-21T01:51:34.555Z,1024.1
2017-12-21T01:52:34.571Z,1024.14
2017-12-21T01:53:34.591Z,1024.12
2017-12-21T01:54:34.612Z,1024.14
2017-12-21T01:55:34.619Z,1024.07
2017-12-21T01:56:34.630Z,1024.11
2017-12-21T01:57:34.647Z,1024.07
2017-12-21T01:58:34.671Z,1024.07
2017-12-21T01:59:34.683Z,1024.05
2017-12-21T02:01:34.721Z,1024.04
2017-12-21T02:02:34.735Z,1024.08
2017-12-21T02:03:34.754Z,1024.06
2017-12-21T02:04:34.762Z,1024.09
2017-12-21T02:05:34.780Z,1024.04
2017-12-21T02:06:34.801Z,1024.1
2017-12-21T02:07:34.816Z,1024.05
2017-12-21T02:08:34.934Z,1023.99
2017-12-21T02:09:34.850Z,1023.97
2017-12-21T02:10:34.862Z,1023.92
2017-12-21T02:11:34.984Z,1023.87
2017-12-21T02:12:34.906Z,1023.87
2017-12-21T02:13:34.916Z,1023.8
2017-12-21T02:14:34.939Z,1023.83
2017-12-21T02:15:34.952Z,1023.82
2017-12-21T02:17:34.978Z,1023.81
2017-12-21T02:18:35.001Z,1023.83
2017-12-21T02:19:35.017Z,1023.83
2017-12-21T02:20:35.027Z,1023.83
2017-12-21T02:21:35.048Z,1023.85
2017-12-21T02:22:35.065Z,1023.83
2017-12-21T02:23:35.077Z,1023.86
2017-12-21T02:24:35.100Z,1023.89
2017-12-21T02:25:35.110Z,1023.87
2017-12-21T02:26:35.134Z,1023.86
2017-12-21T02:27:35.157Z,1023.81
2017-12-21T02:28:35.172Z,1023.82
2017-12-21T02:29:35.186Z,1023.82
2017-12-21T02:30:35.200Z,1023.77
2017-12-21T02:31:35.217Z,1023.8
2017-12-21T02:33:35.242Z,1023.82
2017-12-21T02:34:35.265Z,1023.84
2017-12-21T02:35:35.278Z,1023.84
2017-12-21T02:36:35.298Z,1023.81
2017-12-21T02:37:35.314Z,1023.77
2017-12-21T02:38:35.329Z,1023.76
2017-12-21T02:39:35.342Z,1023.69
2017-12-21T02:40:35.360Z,1023.73
2017-12-21T02:41:35.376Z,1023.65
2017-12-21T02:42:35.402Z,1023.67
2017-12-21T02:43:35.413Z,1023.68
2017-12-21T02:44:35.429Z,1023.7
2017-12-21T02:45:35.445Z,1023.64
2017-12-21T02:46:35.463Z,1023.67
2017-12-21T02:47:35.484Z,1023.72
2017-12-21T02:49:35.513Z,1023.71
2017-12-21T02:50:35.532Z,1023.69
2017-12-21T02:51:35.547Z,1023.68
2017-12-21T02:52:35.568Z,1023.72
2017-12-21T02:53:35.581Z,1023.69
2017-12-21T02:54:35.597Z,1023.72
2017-12-21T02:55:35.606Z,1023.71
2017-12-21T02:56:35.623Z,1023.66
2017-12-21T02:57:35.640Z,1023.63
2017-12-21T02:58:35.661Z,1023.61
2017-12-21T02:59:35.678Z,1023.6
2017-12-21T03:00:35.695Z,1023.56
2017-12-21T03:01:35.706Z,1023.5
2017-12-21T03:02:35.731Z,1023.48
2017-12-21T03:04:35.759Z,1023.43
2017-12-21T03:05:35.784Z,1023.43
2017-12-21T03:06:35.796Z,1023.4
2017-12-21T03:07:35.821Z,1023.42
2017-12-21T03:08:35.842Z,1023.44
2017-12-21T03:09:35.840Z,1023.45
2017-12-21T03:10:35.858Z,1023.49
2017-12-21T03:11:35.885Z,1023.55
2017-12-21T03:12:35.894Z,1023.54
2017-12-21T03:13:35.918Z,1023.57
2017-12-21T03:14:35.924Z,1023.56
2017-12-21T03:15:35.952Z,1023.53
2017-12-21T03:16:35.964Z,1023.52
2017-12-21T03:17:35.974Z,1023.48
2017-12-21T03:18:35.995Z,1023.47
2017-12-21T03:19:36.015Z,1023.43
2017-12-21T03:20:36.023Z,1023.44
2017-12-21T03:21:36.145Z,1023.45
2017-12-21T03:22:36.068Z,1023.39
2017-12-21T03:23:36.074Z,1023.42
2017-12-21T03:24:36.090Z,1023.42
2017-12-21T03:25:36.114Z,1023.38
2017-12-21T03:26:36.135Z,1023.4
2017-12-21T03:27:36.140Z,1023.38
2017-12-21T03:28:36.162Z,1023.3
2017-12-21T03:29:36.184Z,1023.31
2017-12-21T03:30:36.203Z,1023.31
2017-12-21T03:31:36.207Z,1023.34
2017-12-21T03:32:36.224Z,1023.34
2017-12-21T03:33:36.245Z,1023.33
2017-12-21T03:34:36.256Z,1023.33
2017-12-21T03:36:36.304Z,1023.29
2017-12-21T03:37:36.312Z,1023.34
2017-12-21T03:38:36.330Z,1023.31
2017-12-21T03:39:36.341Z,1023.31
2017-12-21T03:40:36.361Z,1023.32
2017-12-21T03:41:36.385Z,1023.31
2017-12-21T03:42:36.396Z,1023.31
2017-12-21T03:43:36.413Z,1023.32
2017-12-21T03:44:36.432Z,1023.33
2017-12-21T03:45:36.451Z,1023.24
2017-12-21T03:46:36.462Z,1023.25
2017-12-21T03:47:36.575Z,1023.24
2017-12-21T03:48:36.499Z,1023.22
2017-12-21T03:49:36.512Z,1023.21
2017-12-21T03:50:36.529Z,1023.24
2017-12-21T03:52:36.558Z,1023.2
2017-12-21T03:53:36.586Z,1023.19
2017-12-21T03:54:36.592Z,1023.17
2017-12-21T03:55:36.616Z,1023.18
2017-12-21T03:56:36.636Z,1023.18
2017-12-21T03:57:36.648Z,1023.18
2017-12-21T03:58:36.664Z,1023.12
2017-12-21T03:59:36.683Z,1023.1
2017-12-21T04:00:36.703Z,1023.04
2017-12-21T04:01:36.713Z,1023.05
2017-12-21T04:02:36.726Z,1023.05
2017-12-21T04:03:36.750Z,1023.07
2017-12-21T04:04:36.766Z,1023.03
2017-12-21T04:05:36.780Z,1023.02
2017-12-21T04:06:36.797Z,1023.03
2017-12-21T04:08:36.826Z,1022.93
2017-12-21T04:09:36.851Z,1022.95
2017-12-21T04:10:36.871Z,1022.92
2017-12-21T04:11:36.881Z,1022.9
2017-12-21T04:12:36.904Z,1022.9
2017-12-21T04:13:36.917Z,1022.92
2017-12-21T04:14:36.939Z,1022.93
2017-12-21T04:15:36.944Z,1022.88
2017-12-21T04:16:36.960Z,1022.9
2017-12-21T04:17:36.984Z,1022.93
2017-12-21T04:18:36.995Z,1022.91
2017-12-21T04:19:37.025Z,1022.88
2017-12-21T04:20:37.029Z,1022.93
2017-12-21T04:21:37.046Z,1022.91
2017-12-21T04:22:37.073Z,1022.92
2017-12-21T04:24:37.102Z,1022.83
2017-12-21T04:25:37.120Z,1022.83
2017-12-21T04:26:37.133Z,1022.84
2017-12-21T04:27:37.158Z,1022.87
2017-12-21T04:28:37.173Z,1022.79
2017-12-21T04:29:37.183Z,1022.84
2017-12-21T04:30:37.198Z,1022.85
2017-12-21T04:31:37.219Z,1022.86
2017-12-21T04:32:37.241Z,1022.83
2017-12-21T04:33:37.252Z,1022.83
2017-12-21T04:34:37.275Z,1022.82
2017-12-21T04:35:37.281Z,1022.87
2017-12-21T04:36:37.305Z,1022.89
2017-12-21T04:37:37.323Z,1022.87
2017-12-21T04:39:37.351Z,1022.92
2017-12-21T04:40:37.374Z,1022.89
2017-12-21T04:41:37.383Z,1022.92
2017-12-21T04:42:37.402Z,1022.88
2017-12-21T04:43:37.422Z,1022.88
2017-12-21T04:44:37.447Z,1022.88
2017-12-21T04:45:37.462Z,1022.93
2017-12-21T04:46:37.469Z,1022.92
2017-12-21T04:47:37.491Z,1022.92
2017-12-21T04:48:37.509Z,1022.91
2017-12-21T04:49:37.526Z,1022.92
2017-12-21T04:50:37.540Z,1022.92
2017-12-21T04:51:37.564Z,1022.9
2017-12-21T04:52:37.575Z,1022.89
2017-12-21T04:53:37.598Z,1022.91
2017-12-21T04:54:37.605Z,1022.94
2017-12-21T04:55:37.630Z,1022.88
2017-12-21T04:56:37.645Z,1022.93
2017-12-21T04:57:37.662Z,1022.95
2017-12-21T04:58:37.671Z,1022.97
2017-12-21T04:59:37.695Z,1022.94
2017-12-21T05:00:37.709Z,1022.93
2017-12-21T05:01:37.723Z,1022.85
2017-12-21T05:02:37.748Z,1022.89
2017-12-21T05:03:37.763Z,1022.82
2017-12-21T05:04:37.787Z,1022.86
2017-12-21T05:05:37.802Z,1022.91
2017-12-21T05:06:37.807Z,1022.86
2017-12-21T05:07:37.825Z,1022.83
2017-12-21T05:08:37.846Z,1022.86
2017-12-21T05:09:37.859Z,1022.84
2017-12-21T05:11:37.896Z,1022.78
2017-12-21T05:12:37.909Z,1022.76
2017-12-21T05:13:37.936Z,1022.78
2017-12-21T05:14:37.952Z,1022.74
2017-12-21T05:15:37.975Z,1022.74
2017-12-21T05:16:37.991Z,1022.76
2017-12-21T05:17:38.005Z,1022.8
2017-12-21T05:18:38.022Z,1022.71
2017-12-21T05:19:38.029Z,1022.75
2017-12-21T05:20:38.044Z,1022.73
2017-12-21T05:21:38.061Z,1022.71
2017-12-21T05:22:38.098Z,1022.74
2017-12-21T05:23:38.108Z,1022.76
2017-12-21T05:24:38.117Z,1022.73
2017-12-21T05:25:38.134Z,1022.77
2017-12-21T05:27:38.170Z,1022.75
2017-12-21T05:28:38.185Z,1022.7
2017-12-21T05:29:38.199Z,1022.71
2017-12-21T05:30:38.220Z,1022.7
2017-12-21T05:31:38.243Z,1022.74
2017-12-21T05:32:38.255Z,1022.77
2017-12-21T05:33:38.277Z,1022.79
2017-12-21T05:34:38.284Z,1022.82
2017-12-21T05:35:38.308Z,1022.77
2017-12-21T05:36:38.318Z,1022.77
2017-12-21T05:37:38.343Z,1022.72
2017-12-21T05:38:38.360Z,1022.71
2017-12-21T05:39:38.381Z,1022.68
2017-12-21T05:40:38.391Z,1022.66
2017-12-21T05:41:38.416Z,1022.7
2017-12-21T05:43:38.440Z,1022.62
2017-12-21T05:44:38.460Z,1022.67
2017-12-21T05:45:38.485Z,1022.63
2017-12-21T05:46:38.499Z,1022.63
2017-12-21T05:47:38.510Z,1022.62
2017-12-21T05:48:38.525Z,1022.63
2017-12-21T05:49:38.545Z,1022.66
2017-12-21T05:50:38.562Z,1022.65
2017-12-21T05:51:38.579Z,1022.67
2017-12-21T05:52:38.593Z,1022.66
2017-12-21T05:53:38.610Z,1022.61
2017-12-21T05:54:38.637Z,1022.67
2017-12-21T05:55:38.647Z,1022.64
2017-12-21T05:56:38.666Z,1022.67
2017-12-21T05:57:38.689Z,1022.62
2017-12-21T05:59:38.723Z,1022.63
2017-12-21T06:00:38.731Z,1022.63
2017-12-21T06:01:38.756Z,1022.59
2017-12-21T06:02:38.763Z,1022.63
2017-12-21T06:03:38.788Z,1022.58
2017-12-21T06:04:38.797Z,1022.55
2017-12-21T06:05:38.819Z,1022.53
2017-12-21T06:06:38.844Z,1022.58
2017-12-21T06:07:38.849Z,1022.54
2017-12-21T06:08:38.867Z,1022.54
2017-12-21T06:09:38.901Z,1022.55
2017-12-21T06:10:38.907Z,1022.52
2017-12-21T06:11:38.925Z,1022.5
2017-12-21T06:12:38.946Z,1022.48
2017-12-21T06:14:38.977Z,1022.49
2017-12-21T06:15:38.993Z,1022.44
2017-12-21T06:16:39.008Z,1022.47
2017-12-21T06:17:39.027Z,1022.51
2017-12-21T06:18:39.040Z,1022.46
2017-12-21T06:19:39.056Z,1022.47
2017-12-21T06:20:39.080Z,1022.49
2017-12-21T06:21:39.100Z,1022.44
2017-12-21T06:22:39.106Z,1022.41
2017-12-21T06:23:39.135Z,1022.44
2017-12-21T06:24:39.147Z,1022.46
2017-12-21T06:25:39.158Z,1022.44
2017-12-21T06:26:39.176Z,1022.42
2017-12-21T06:27:39.193Z,1022.45
2017-12-21T06:28:39.218Z,1022.45
2017-12-21T06:29:39.235Z,1022.48
2017-12-21T06:30:39.246Z,1022.45
2017-12-21T06:31:39.269Z,1022.44
2017-12-21T06:32:39.280Z,1022.43
2017-12-21T06:33:39.301Z,1022.45
2017-12-21T06:34:39.318Z,1022.42
2017-12-21T06:35:39.339Z,1022.42
2017-12-21T06:36:39.352Z,1022.42
2017-12-21T06:37:39.365Z,1022.45
2017-12-21T06:38:39.386Z,1022.42
2017-12-21T06:39:39.400Z,1022.4
2017-12-21T06:40:39.418Z,1022.46
2017-12-21T06:41:39.433Z,1022.4
2017-12-21T06:42:39.457Z,1022.45
2017-12-21T06:43:39.480Z,1022.39
2017-12-21T06:44:39.496Z,1022.38
2017-12-21T06:46:39.521Z,1022.36
2017-12-21T06:47:39.542Z,1022.34
2017-12-21T06:48:39.555Z,1022.32
2017-12-21T06:49:39.571Z,1022.33
2017-12-21T06:50:39.594Z,1022.33
2017-12-21T06:51:39.613Z,1022.35
2017-12-21T06:52:39.629Z,1022.29
2017-12-21T06:53:39.652Z,1022.31
2017-12-21T06:54:39.662Z,1022.28
2017-12-21T06:55:39.682Z,1022.3
2017-12-21T06:56:39.704Z,1022.26
2017-12-21T06:57:39.710Z,1022.32
2017-12-21T06:58:39.734Z,1022.29
2017-12-21T06:59:39.750Z,1022.3
2017-12-21T07:00:39.767Z,1022.31
2017-12-21T07:02:39.796Z,1022.31
2017-12-21T07:03:39.823Z,1022.3
2017-12-21T07:04:39.838Z,1022.32
2017-12-21T07:05:39.853Z,1022.34
2017-12-21T07:06:39.870Z,1022.37
2017-12-21T07:07:39.894Z,1022.4
2017-12-21T07:08:39.910Z,1022.37
2017-12-21T07:09:39.919Z,1022.4
2017-12-21T07:10:39.936Z,1022.36
2017-12-21T07:11:39.964Z,1022.4
2017-12-21T07:12:39.980Z,1022.41
2017-12-21T07:13:39.993Z,1022.4
2017-12-21T07:14:40.016Z,1022.43
2017-12-21T07:15:40.027Z,1022.46
2017-12-21T07:16:40.046Z,1022.48
2017-12-21T07:18:40.074Z,1022.53
2017-12-21T07:19:40.102Z,1022.48
2017-12-21T07:20:40.115Z,1022.53
2017-12-21T07:21:40.130Z,1022.53
2017-12-21T07:22:40.149Z,1022.53
2017-12-21T07:23:40.172Z,1022.52
2017-12-21T07:24:40.180Z,1022.56
2017-12-21T07:25:40.212Z,1022.54
2017-12-21T07:26:40.219Z,1022.61
2017-12-21T07:27:40.237Z,1022.53
2017-12-21T07:28:40.255Z,1022.54
2017-12-21T07:29:40.277Z,1022.62
2017-12-21T07:30:40.295Z,1022.64
2017-12-21T07:31:40.301Z,1022.62
2017-12-21T07:32:40.419Z,1022.65
2017-12-21T07:34:40.357Z,1022.66
2017-12-21T07:35:40.383Z,1022.62
2017-12-21T07:36:40.395Z,1022.64
2017-12-21T07:37:40.410Z,1022.64
2017-12-21T07:38:40.428Z,1022.66
2017-12-21T07:39:40.447Z,1022.66
2017-12-21T07:40:40.465Z,1022.6
2017-12-21T07:41:40.480Z,1022.62
2017-12-21T07:42:40.506Z,1022.58
2017-12-21T07:43:40.521Z,1022.62
2017-12-21T07:44:40.531Z,1022.57
2017-12-21T07:45:40.549Z,1022.56
2017-12-21T07:46:40.563Z,1022.61
2017-12-21T07:47:40.581Z,1022.59
2017-12-21T07:49:40.619Z,1022.6
2017-12-21T07:50:40.637Z,1022.58
2017-12-21T07:51:40.660Z,1022.56
2017-12-21T07:52:40.667Z,1022.54
2017-12-21T07:53:40.685Z,1022.57
2017-12-21T07:54:40.707Z,1022.52
2017-12-21T07:55:40.723Z,1022.53
2017-12-21T07:56:40.737Z,1022.55
2017-12-21T07:57:40.754Z,1022.52
2017-12-21T07:58:40.775Z,1022.54
2017-12-21T07:59:40.800Z,1022.55
2017-12-21T08:00:40.806Z,1022.46
2017-12-21T08:01:40.834Z,1022.45
2017-12-21T08:02:40.842Z,1022.48
2017-12-21T08:03:40.870Z,1022.47
2017-12-21T08:04:40.881Z,1022.45
2017-12-21T08:05:40.903Z,1022.49
2017-12-21T08:06:40.916Z,1022.47
2017-12-21T08:07:40.928Z,1022.44
2017-12-21T08:08:40.945Z,1022.43
2017-12-21T08:09:40.966Z,1022.43
2017-12-21T08:10:40.988Z,1022.47
2017-12-21T08:11:41.002Z,1022.44
2017-12-21T08:12:41.019Z,1022.35
2017-12-21T08:13:41.038Z,1022.32
2017-12-21T08:14:41.055Z,1022.3
2017-12-21T08:15:41.068Z,1022.28
2017-12-21T08:16:41.091Z,1022.29
2017-12-21T08:17:41.114Z,1022.28
2017-12-21T08:18:41.121Z,1022.22
2017-12-21T08:19:41.138Z,1022.33
2017-12-21T08:21:41.177Z,1022.22
2017-12-21T08:22:41.190Z,1022.32
2017-12-21T08:23:41.212Z,1022.3
2017-12-21T08:24:41.236Z,1022.32
2017-12-21T08:25:41.247Z,1022.31
2017-12-21T08:26:41.266Z,1022.32
2017-12-21T08:27:41.278Z,1022.32
2017-12-21T08:28:41.296Z,1022.33
2017-12-21T08:29:41.318Z,1022.28
2017-12-21T08:30:41.335Z,1022.28
2017-12-21T08:31:41.352Z,1022.31
2017-12-21T08:32:41.372Z,1022.3
2017-12-21T08:33:41.383Z,1022.25
2017-12-21T08:34:41.400Z,1022.31
2017-12-21T08:35:41.419Z,1022.33
2017-12-21T08:37:41.461Z,1022.31
2017-12-21T08:38:41.484Z,1022.27
2017-12-21T08:39:41.500Z,1022.25
2017-12-21T08:40:41.511Z,1022.22
2017-12-21T08:41:41.528Z,1022.22
2017-12-21T08:42:41.549Z,1022.27
2017-12-21T08:43:41.559Z,1022.3
2017-12-21T08:44:41.589Z,1022.31
2017-12-21T08:45:41.602Z,1022.23
2017-12-21T08:46:41.611Z,1022.29
2017-12-21T08:47:41.637Z,1022.28
2017-12-21T08:48:41.655Z,1022.28
2017-12-21T08:49:41.676Z,1022.27
2017-12-21T08:50:41.686Z,1022.31
2017-12-21T08:51:41.704Z,1022.37
2017-12-21T08:53:41.743Z,1022.42
2017-12-21T08:54:41.757Z,1022.34
2017-12-21T08:55:41.775Z,1022.41
2017-12-21T08:56:41.799Z,1022.39
2017-12-21T08:57:41.817Z,1022.38
2017-12-21T08:58:41.824Z,1022.4
2017-12-21T08:59:41.846Z,1022.37
2017-12-21T09:00:41.870Z,1022.34
2017-12-21T09:01:41.877Z,1022.35
2017-12-21T09:02:41.895Z,1022.43
2017-12-21T09:03:41.922Z,1022.43
2017-12-21T09:04:41.940Z,1022.41
2017-12-21T09:05:41.954Z,1022.46
2017-12-21T09:06:42.002Z,1022.46
2017-12-21T09:07:41.987Z,1022.48
2017-12-21T09:09:42.022Z,1022.45
2017-12-21T09:10:42.093Z,1022.47
2017-12-21T09:11:42.056Z,1022.5
2017-12-21T09:12:42.086Z,1022.49
2017-12-21T09:13:42.095Z,1022.56
2017-12-21T09:14:42.116Z,1022.51
2017-12-21T09:15:42.137Z,1022.48
2017-12-21T09:16:42.141Z,1022.47
2017-12-21T09:17:42.169Z,1022.52
2017-12-21T09:18:42.182Z,1022.51
2017-12-21T09:19:42.201Z,1022.5
2017-12-21T09:20:42.218Z,1022.45
2017-12-21T09:21:42.234Z,1022.49
2017-12-21T09:22:42.260Z,1022.5
2017-12-21T09:24:42.295Z,1022.51
2017-12-21T09:25:42.307Z,1022.53
2017-12-21T09:26:42.326Z,1022.51
2017-12-21T09:27:42.345Z,1022.55
2017-12-21T09:28:42.363Z,1022.55
2017-12-21T09:29:42.372Z,1022.52
2017-12-21T09:30:42.392Z,1022.54
2017-12-21T09:31:42.409Z,1022.59
2017-12-21T09:32:42.427Z,1022.61
2017-12-21T09:33:42.455Z,1022.58
2017-12-21T09:34:42.467Z,1022.57
2017-12-21T09:35:42.484Z,1022.61
2017-12-21T09:36:42.501Z,1022.64
2017-12-21T09:37:42.515Z,1022.64
2017-12-21T09:38:42.538Z,1022.69
2017-12-21T09:39:42.551Z,1022.7
2017-12-21T09:40:42.576Z,1022.65
2017-12-21T09:41:42.592Z,1022.68
2017-12-21T09:42:42.606Z,1022.69
2017-12-21T09:43:42.622Z,1022.62
2017-12-21T09:44:42.652Z,1022.65
2017-12-21T09:45:42.670Z,1022.68
2017-12-21T09:46:42.681Z,1022.66
2017-12-21T09:47:42.705Z,1022.72
2017-12-21T09:48:42.718Z,1022.71
2017-12-21T09:49:42.730Z,1022.79
2017-12-21T09:50:42.750Z,1022.78
2017-12-21T09:51:42.773Z,1022.77
2017-12-21T09:52:42.787Z,1022.74
2017-12-21T09:53:42.813Z,1022.77
2017-12-21T09:54:42.825Z,1022.74
2017-12-21T09:56:42.863Z,1022.73
2017-12-21T09:57:42.878Z,1022.72
2017-12-21T09:58:42.896Z,1022.68
2017-12-21T09:59:42.921Z,1022.65
2017-12-21T10:00:42.928Z,1022.67
2017-12-21T10:01:42.952Z,1022.66
2017-12-21T10:02:42.976Z,1022.68
2017-12-21T10:03:42.982Z,1022.64
2017-12-21T10:04:43.005Z,1022.68
2017-12-21T10:05:43.027Z,1022.67
2017-12-21T10:06:43.037Z,1022.67
2017-12-21T10:07:43.061Z,1022.62
2017-12-21T10:08:43.078Z,1022.67
2017-12-21T10:09:43.095Z,1022.7
2017-12-21T10:10:43.112Z,1022.68
2017-12-21T10:12:43.151Z,1022.73
2017-12-21T10:13:43.164Z,1022.67
2017-12-21T10:14:43.189Z,1022.73
2017-12-21T10:15:43.204Z,1022.67
2017-12-21T10:16:43.223Z,1022.73
2017-12-21T10:17:43.237Z,1022.67
2017-12-21T10:18:43.261Z,1022.7
2017-12-21T10:19:43.273Z,1022.65
2017-12-21T10:20:43.298Z,1022.64
2017-12-21T10:21:43.309Z,1022.67
2017-12-21T10:22:43.329Z,1022.66
2017-12-21T10:23:43.358Z,1022.69
2017-12-21T10:24:43.375Z,1022.72
2017-12-21T10:25:43.391Z,1022.63
2017-12-21T10:26:43.401Z,1022.62
2017-12-21T10:28:43.444Z,1022.6
2017-12-21T10:29:43.463Z,1022.56
2017-12-21T10:30:43.480Z,1022.56
2017-12-21T10:31:43.500Z,1022.58
2017-12-21T10:32:43.520Z,1022.57
2017-12-21T10:33:43.528Z,1022.58
2017-12-21T10:34:43.548Z,1022.59
2017-12-21T10:35:43.570Z,1022.55
2017-12-21T10:36:43.584Z,1022.54
2017-12-21T10:37:43.603Z,1022.61
2017-12-21T10:38:43.628Z,1022.57
2017-12-21T10:39:43.639Z,1022.58
2017-12-21T10:40:43.673Z,1022.54
2017-12-21T10:41:43.676Z,1022.55
2017-12-21T10:42:43.694Z,1022.53
2017-12-21T10:44:43.732Z,1022.5
2017-12-21T10:45:43.750Z,1022.53
2017-12-21T10:46:43.774Z,1022.56
2017-12-21T10:47:43.791Z,1022.53
2017-12-21T10:48:43.806Z,1022.54
2017-12-21T10:49:43.833Z,1022.53
2017-12-21T10:50:43.856Z,1022.54
2017-12-21T10:51:43.861Z,1022.54
2017-12-21T10:52:43.884Z,1022.55
2017-12-21T10:53:43.902Z,1022.49
2017-12-21T10:54:43.919Z,1022.49
2017-12-21T10:55:43.934Z,1022.49
2017-12-21T10:56:43.963Z,1022.54
2017-12-21T10:57:43.977Z,1022.46
2017-12-21T10:59:44.018Z,1022.49
2017-12-21T11:00:44.032Z,1022.5
2017-12-21T11:01:44.048Z,1022.47
2017-12-21T11:02:44.063Z,1022.54
2017-12-21T11:03:44.081Z,1022.51
2017-12-21T11:04:44.102Z,1022.52
2017-12-21T11:05:44.120Z,1022.51
2017-12-21T11:06:44.134Z,1022.48
2017-12-21T11:07:44.162Z,1022.49
2017-12-21T11:08:44.182Z,1022.42
2017-12-21T11:09:44.192Z,1022.45
2017-12-21T11:10:44.209Z,1022.42
2017-12-21T11:11:44.233Z,1022.42
2017-12-21T11:12:44.248Z,1022.42
2017-12-21T11:13:44.274Z,1022.4
2017-12-21T11:14:44.293Z,1022.43
2017-12-21T11:15:44.312Z,1022.45
2017-12-21T11:16:44.327Z,1022.46
2017-12-21T11:17:44.343Z,1022.43
2017-12-21T11:18:44.364Z,1022.4
2017-12-21T11:19:44.372Z,1022.4
2017-12-21T11:20:44.396Z,1022.34
2017-12-21T11:21:44.417Z,1022.42
2017-12-21T11:22:44.434Z,1022.46
2017-12-21T11:23:44.447Z,1022.46
2017-12-21T11:24:44.464Z,1022.41
2017-12-21T11:25:44.487Z,1022.45
2017-12-21T11:26:44.501Z,1022.44
2017-12-21T11:27:44.524Z,1022.45
2017-12-21T11:28:44.549Z,1022.41
2017-12-21T11:29:44.560Z,1022.5
2017-12-21T11:31:44.599Z,1022.45
2017-12-21T11:32:44.620Z,1022.44
2017-12-21T11:33:44.634Z,1022.44
2017-12-21T11:34:44.649Z,1022.46
2017-12-21T11:35:44.673Z,1022.47
2017-12-21T11:36:44.692Z,1022.44
2017-12-21T11:37:44.703Z,1022.42
2017-12-21T11:38:44.734Z,1022.43
2017-12-21T11:39:44.748Z,1022.36
2017-12-21T11:40:44.759Z,1022.33
2017-12-21T11:41:44.788Z,1022.27
2017-12-21T11:42:44.808Z,1022.27
2017-12-21T11:43:44.826Z,1022.26
2017-12-21T11:44:44.839Z,1022.26
2017-12-21T11:45:44.852Z,1022.35
2017-12-21T11:47:44.899Z,1022.37
2017-12-21T11:48:44.914Z,1022.4
2017-12-21T11:49:44.927Z,1022.37
2017-12-21T11:50:44.955Z,1022.4
2017-12-21T11:51:44.969Z,1022.35
2017-12-21T11:52:44.987Z,1022.45
2017-12-21T11:53:45.002Z,1022.44
2017-12-21T11:54:45.019Z,1022.5
2017-12-21T11:55:45.047Z,1022.5
2017-12-21T11:56:45.059Z,1022.54
2017-12-21T11:57:45.074Z,1022.46
2017-12-21T11:58:45.103Z,1022.52
2017-12-21T11:59:45.114Z,1022.59
2017-12-21T12:00:45.129Z,1022.59
2017-12-21T12:01:45.147Z,1022.62
2017-12-21T12:03:45.184Z,1022.62
2017-12-21T12:04:45.202Z,1022.56
2017-12-21T12:05:45.227Z,1022.5
2017-12-21T12:06:45.242Z,1022.49
2017-12-21T12:07:45.262Z,1022.51
2017-12-21T12:08:45.288Z,1022.5
2017-12-21T12:09:45.301Z,1022.57
2017-12-21T12:10:45.316Z,1022.54
2017-12-21T12:11:45.336Z,1022.5
2017-12-21T12:12:45.359Z,1022.52
2017-12-21T12:13:45.378Z,1022.53
2017-12-21T12:14:45.386Z,1022.55
2017-12-21T12:15:45.407Z,1022.53
2017-12-21T12:16:45.424Z,1022.52
2017-12-21T12:17:45.440Z,1022.44
2017-12-21T12:19:45.482Z,1022.51
2017-12-21T12:20:45.496Z,1022.52
2017-12-21T12:21:45.525Z,1022.54
2017-12-21T12:22:45.536Z,1022.57
2017-12-21T12:23:45.560Z,1022.55
2017-12-21T12:24:45.578Z,1022.51
2017-12-21T12:25:45.642Z,1022.5
2017-12-21T12:26:45.607Z,1022.51
2017-12-21T12:27:45.626Z,1022.55
2017-12-21T12:28:45.639Z,1022.53
2017-12-21T12:29:45.662Z,1022.53
2017-12-21T12:30:45.676Z,1022.58
2017-12-21T12:31:45.702Z,1022.56
2017-12-21T12:32:45.714Z,1022.57
2017-12-21T12:34:45.765Z,1022.65
2017-12-21T12:35:45.774Z,1022.65
2017-12-21T12:36:45.792Z,1022.72
2017-12-21T12:37:45.803Z,1022.71
2017-12-21T12:38:45.827Z,1022.71
2017-12-21T12:39:45.840Z,1022.72
2017-12-21T12:40:45.863Z,1022.67
2017-12-21T12:41:45.876Z,1022.7
2017-12-21T12:42:45.905Z,1022.7
2017-12-21T12:43:45.924Z,1022.74
2017-12-21T12:44:45.930Z,1022.72
2017-12-21T12:45:45.950Z,1022.74
2017-12-21T12:46:45.973Z,1022.75
2017-12-21T12:47:45.997Z,1022.74
2017-12-21T12:48:46.009Z,1022.75